createdAt,value
2022-12-03T00:00:12.529Z,53.17
2022-12-03T00:01:14.780Z,56.00
2022-12-03T00:02:16.422Z,53.88
2022-12-03T00:03:18.210Z,51.38
2022-12-03T00:04:19.892Z,50.13
2022-12-03T00:05:21.515Z,51.57
2022-12-03T00:06:24.154Z,47.65
2022-12-03T00:07:25.813Z,43.92
2022-12-03T00:08:27.434Z,45.63
2022-12-03T00:09:29.042Z,48.00
2022-12-03T00:10:30.807Z,45.20
2022-12-03T00:11:32.363Z,48.38
2022-12-03T00:12:34.017Z,50.42
2022-12-03T00:13:35.554Z,51.17
2022-12-03T00:14:42.916Z,54.00
2022-12-03T00:15:46.233Z,50.67
2022-12-03T00:16:47.830Z,47.88
2022-12-03T00:17:49.375Z,48.08
2022-12-03T00:18:50.922Z,50.10
2022-12-03T00:19:52.418Z,52.10
2022-12-03T00:20:54.017Z,55.17
2022-12-03T00:21:55.582Z,49.90
2022-12-03T00:22:57.212Z,51.35
2022-12-03T00:23:58.911Z,52.60
2022-12-03T00:25:00.595Z,52.05
2022-12-03T00:26:02.148Z,52.27
2022-12-03T00:27:03.759Z,52.15
2022-12-03T00:28:05.334Z,48.78
2022-12-03T00:29:06.911Z,49.28
2022-12-03T00:30:09.061Z,48.45
2022-12-03T00:31:10.644Z,46.95
2022-12-03T00:32:12.284Z,50.90
2022-12-03T00:33:13.865Z,57.00
2022-12-03T00:34:15.431Z,49.35
2022-12-03T00:35:17.075Z,47.10
2022-12-03T00:36:18.677Z,49.77
2022-12-03T00:37:20.290Z,53.22
2022-12-03T00:38:21.822Z,50.33
2022-12-03T00:39:23.408Z,49.65
2022-12-03T00:40:24.988Z,54.95
2022-12-03T00:41:26.557Z,50.67
2022-12-03T00:42:28.190Z,56.70
2022-12-03T00:43:29.724Z,53.42
2022-12-03T00:44:31.266Z,49.85
2022-12-03T00:45:32.870Z,49.63
2022-12-03T00:46:34.532Z,48.53
2022-12-03T00:47:36.340Z,53.85
2022-12-03T00:48:37.923Z,48.03
2022-12-03T00:49:39.466Z,49.40
2022-12-03T00:50:41.071Z,51.20
2022-12-03T00:51:42.637Z,46.45
2022-12-03T00:52:44.279Z,51.63
2022-12-03T00:53:45.832Z,51.13
2022-12-03T00:54:47.387Z,46.50
2022-12-03T00:55:50.717Z,51.23
2022-12-03T00:56:52.274Z,55.65
2022-12-03T00:57:53.893Z,54.10
2022-12-03T00:58:55.441Z,50.03
2022-12-03T00:59:57.047Z,49.13
2022-12-03T01:00:58.693Z,54.00
2022-12-03T01:02:00.305Z,48.22
2022-12-03T01:03:02.124Z,47.75
2022-12-03T01:04:03.797Z,47.80
2022-12-03T01:05:05.568Z,50.22
2022-12-03T01:06:07.158Z,48.83
2022-12-03T01:07:08.694Z,48.92
2022-12-03T01:08:10.342Z,54.75
2022-12-03T01:09:11.985Z,47.83
2022-12-03T01:10:13.714Z,48.90
2022-12-03T01:11:33.823Z,49.00
2022-12-03T01:12:35.401Z,49.88
2022-12-03T01:13:36.944Z,47.03
2022-12-03T01:14:38.548Z,50.20
2022-12-03T01:15:40.144Z,46.58
2022-12-03T01:16:41.972Z,52.20
2022-12-03T01:17:43.503Z,52.70
2022-12-03T01:18:46.286Z,52.80
2022-12-03T01:19:48.545Z,51.75
2022-12-03T01:20:50.288Z,45.47
2022-12-03T01:21:52.184Z,49.22
2022-12-03T01:22:53.930Z,50.53
2022-12-03T01:23:55.568Z,49.40
2022-12-03T01:24:57.116Z,50.88
2022-12-03T01:25:58.666Z,47.08
2022-12-03T01:27:01.010Z,54.63
2022-12-03T01:28:02.563Z,51.08
2022-12-03T01:29:04.513Z,46.53
2022-12-03T01:30:06.782Z,47.47
2022-12-03T01:31:27.582Z,50.80
2022-12-03T01:32:29.241Z,56.65
2022-12-03T01:33:30.787Z,53.97
2022-12-03T01:34:32.409Z,49.45
2022-12-03T01:35:34.016Z,49.85
2022-12-03T01:36:35.566Z,47.33
2022-12-03T01:37:37.174Z,52.38
2022-12-03T01:38:38.743Z,52.63
2022-12-03T01:39:40.458Z,47.25
2022-12-03T01:40:42.067Z,51.60
2022-12-03T01:41:43.626Z,51.80
2022-12-03T01:42:45.266Z,44.95
2022-12-03T01:43:46.844Z,50.53
2022-12-03T01:44:48.397Z,50.28
2022-12-03T01:45:50.021Z,49.38
2022-12-03T01:46:52.382Z,47.07
2022-12-03T01:47:53.994Z,51.55
2022-12-03T01:48:55.565Z,48.95
2022-12-03T01:50:03.938Z,51.80
2022-12-03T01:51:05.884Z,49.17
2022-12-03T01:52:11.045Z,51.20
2022-12-03T01:53:15.251Z,52.53
2022-12-03T01:54:21.554Z,50.70
2022-12-03T01:55:23.145Z,51.45
2022-12-03T01:56:24.742Z,58.85
2022-12-03T01:57:42.764Z,47.87
2022-12-03T01:58:44.536Z,61.60
2022-12-03T01:59:46.200Z,60.30
2022-12-03T02:00:47.797Z,60.00
2022-12-03T02:01:49.408Z,55.30
2022-12-03T02:02:53.348Z,64.07
2022-12-03T02:03:55.026Z,59.83
2022-12-03T02:04:56.832Z,61.38
2022-12-03T02:05:58.388Z,60.50
2022-12-03T02:07:18.719Z,57.70
2022-12-03T02:08:34.618Z,55.47
2022-12-03T02:09:36.171Z,59.40
2022-12-03T02:10:37.665Z,62.58
2022-12-03T02:11:41.225Z,55.30
2022-12-03T02:12:47.310Z,69.32
2022-12-03T02:13:49.999Z,57.22
2022-12-03T02:14:51.970Z,61.72
2022-12-03T02:15:53.834Z,53.88
2022-12-03T02:16:55.514Z,51.05
2022-12-03T02:17:57.058Z,57.30
2022-12-03T02:18:58.664Z,56.30
2022-12-03T02:20:01.714Z,60.78
2022-12-03T02:21:32.695Z,56.60
2022-12-03T02:22:55.976Z,59.50
2022-12-03T02:23:57.466Z,56.17
2022-12-03T02:25:32.064Z,58.95
2022-12-03T02:26:33.602Z,49.35
2022-12-03T02:27:35.134Z,54.60
2022-12-03T02:28:38.191Z,59.25
2022-12-03T02:29:39.731Z,60.40
2022-12-03T02:30:41.259Z,55.37
2022-12-03T02:31:43.486Z,50.95
2022-12-03T02:32:45.197Z,59.85
2022-12-03T02:33:46.739Z,61.05
2022-12-03T02:34:48.392Z,61.20
2022-12-03T02:35:49.994Z,63.83
2022-12-03T02:36:51.551Z,58.58
2022-12-03T02:37:55.183Z,54.65
2022-12-03T02:38:56.795Z,59.28
2022-12-03T02:39:59.957Z,51.53
2022-12-03T02:41:04.651Z,54.65
2022-12-03T02:42:24.575Z,62.75
2022-12-03T02:43:26.212Z,62.97
2022-12-03T02:44:27.759Z,58.70
2022-12-03T02:45:31.142Z,61.08
2022-12-03T02:46:33.224Z,60.17
2022-12-03T02:47:42.824Z,57.08
2022-12-03T02:48:44.478Z,55.97
2022-12-03T02:49:46.021Z,54.27
2022-12-03T02:50:52.256Z,54.42
2022-12-03T02:51:53.819Z,54.92
2022-12-03T02:52:56.158Z,55.20
2022-12-03T02:53:57.792Z,50.05
2022-12-03T02:54:59.373Z,56.55
2022-12-03T02:56:01.802Z,55.15
2022-12-03T02:57:03.451Z,51.30
2022-12-03T02:58:05.225Z,48.92
2022-12-03T02:59:06.844Z,53.77
2022-12-03T03:00:09.191Z,51.10
2022-12-03T03:01:10.779Z,51.22
2022-12-03T03:02:13.555Z,54.25
2022-12-03T03:03:15.193Z,49.45
2022-12-03T03:04:16.750Z,51.92
2022-12-03T03:05:20.396Z,50.22
2022-12-03T03:06:21.946Z,56.95
2022-12-03T03:07:23.488Z,51.20
2022-12-03T03:08:25.108Z,48.05
2022-12-03T03:09:26.651Z,53.60
2022-12-03T03:10:28.218Z,49.08
2022-12-03T03:11:29.805Z,48.42
2022-12-03T03:12:34.837Z,53.25
2022-12-03T03:13:40.466Z,45.83
2022-12-03T03:14:42.006Z,52.85
2022-12-03T03:15:43.622Z,51.08
2022-12-03T03:16:45.284Z,57.40
2022-12-03T03:17:46.949Z,49.25
2022-12-03T03:18:48.492Z,54.90
2022-12-03T03:19:50.098Z,55.20
2022-12-03T03:20:51.669Z,52.65
2022-12-03T03:21:53.667Z,54.22
2022-12-03T03:22:55.214Z,51.90
2022-12-03T03:23:56.762Z,49.90
2022-12-03T03:24:58.377Z,55.70
2022-12-03T03:26:03.630Z,53.92
2022-12-03T03:27:05.179Z,53.42
2022-12-03T03:28:06.747Z,55.50
2022-12-03T03:29:08.308Z,61.07
2022-12-03T03:30:10.440Z,55.92
2022-12-03T03:31:12.932Z,56.10
2022-12-03T03:32:14.542Z,57.55
2022-12-03T03:33:16.187Z,55.03
2022-12-03T03:34:17.747Z,56.95
2022-12-03T03:35:19.422Z,52.33
2022-12-03T03:36:20.972Z,52.35
2022-12-03T03:37:22.517Z,56.78
2022-12-03T03:38:24.139Z,54.73
2022-12-03T03:39:25.690Z,57.53
2022-12-03T03:40:27.481Z,57.10
2022-12-03T03:41:29.086Z,53.85
2022-12-03T03:42:30.669Z,54.83
2022-12-03T03:43:33.393Z,54.90
2022-12-03T03:44:35.063Z,52.13
2022-12-03T03:45:36.744Z,51.92
2022-12-03T03:46:38.722Z,54.25
2022-12-03T03:47:40.366Z,52.72
2022-12-03T03:48:42.154Z,46.33
2022-12-03T03:49:44.154Z,49.22
2022-12-03T03:50:45.717Z,61.05
2022-12-03T03:51:47.330Z,54.35
2022-12-03T03:52:48.885Z,54.05
2022-12-03T03:53:50.444Z,52.08
2022-12-03T03:54:52.490Z,56.42
2022-12-03T03:55:54.380Z,57.08
2022-12-03T03:56:55.894Z,56.17
2022-12-03T03:57:57.453Z,58.15
2022-12-03T03:58:58.985Z,56.33
2022-12-03T04:00:00.539Z,50.75
2022-12-03T04:01:02.217Z,51.58
2022-12-03T04:02:03.809Z,51.05
2022-12-03T04:03:05.453Z,49.20
2022-12-03T04:04:16.944Z,55.67
2022-12-03T04:05:20.072Z,55.33
2022-12-03T04:06:21.639Z,51.35
2022-12-03T04:07:23.197Z,54.85
2022-12-03T04:08:24.773Z,54.63
2022-12-03T04:09:26.331Z,53.73
2022-12-03T04:10:46.484Z,55.95
2022-12-03T04:12:06.353Z,51.97
2022-12-03T04:13:07.894Z,61.47
2022-12-03T04:14:09.456Z,53.75
2022-12-03T04:15:11.019Z,51.53
2022-12-03T04:16:12.695Z,54.25
2022-12-03T04:17:14.297Z,52.03
2022-12-03T04:18:34.357Z,58.00
2022-12-03T04:19:35.918Z,57.53
2022-12-03T04:20:38.081Z,61.22
2022-12-03T04:21:59.055Z,52.72
2022-12-03T04:23:00.598Z,51.60
2022-12-03T04:24:02.286Z,59.65
2022-12-03T04:25:23.068Z,53.50
2022-12-03T04:26:43.178Z,55.67
2022-12-03T04:28:03.758Z,55.90
2022-12-03T04:29:05.287Z,57.53
2022-12-03T04:30:07.352Z,50.20
2022-12-03T04:31:27.522Z,55.00
2022-12-03T04:32:47.783Z,54.75
2022-12-03T04:34:07.803Z,49.50
2022-12-03T04:35:28.734Z,55.55
2022-12-03T04:36:30.336Z,56.40
2022-12-03T04:37:31.856Z,49.78
2022-12-03T04:38:33.429Z,58.60
2022-12-03T04:39:35.052Z,55.47
2022-12-03T04:40:55.634Z,56.10
2022-12-03T04:41:57.176Z,55.10
2022-12-03T04:42:58.730Z,53.00
2022-12-03T04:44:18.997Z,58.90
2022-12-03T04:45:20.619Z,57.00
2022-12-03T04:46:22.348Z,55.50
2022-12-03T04:47:40.112Z,53.78
2022-12-03T04:48:41.819Z,55.75
2022-12-03T04:49:47.448Z,55.00
2022-12-03T04:50:49.016Z,57.85
2022-12-03T04:51:50.670Z,54.65
2022-12-03T04:52:52.222Z,54.97
2022-12-03T04:53:53.794Z,54.47
2022-12-03T04:54:55.525Z,50.67
2022-12-03T04:55:57.377Z,55.50
2022-12-03T04:56:58.986Z,59.45
2022-12-03T04:58:00.537Z,49.30
2022-12-03T04:59:02.124Z,55.38
2022-12-03T05:00:05.223Z,54.80
2022-12-03T05:01:06.860Z,54.40
2022-12-03T05:02:08.699Z,51.00
2022-12-03T05:03:10.317Z,51.08
2022-12-03T05:04:12.875Z,52.57
2022-12-03T05:05:14.489Z,53.05
2022-12-03T05:06:16.096Z,52.38
2022-12-03T05:07:17.728Z,56.83
2022-12-03T05:08:19.311Z,53.15
2022-12-03T05:09:20.916Z,53.80
2022-12-03T05:10:22.448Z,51.55
2022-12-03T05:11:24.016Z,56.05
2022-12-03T05:12:25.623Z,57.00
2022-12-03T05:13:27.230Z,56.92
2022-12-03T05:14:28.791Z,59.92
2022-12-03T05:15:30.333Z,51.35
2022-12-03T05:16:31.975Z,55.88
2022-12-03T05:17:33.591Z,57.65
2022-12-03T05:18:35.206Z,53.90
2022-12-03T05:19:55.166Z,60.15
2022-12-03T05:20:56.718Z,57.28
2022-12-03T05:21:58.344Z,59.30
2022-12-03T05:22:59.925Z,56.58
2022-12-03T05:24:01.782Z,59.07
2022-12-03T05:25:03.793Z,57.85
2022-12-03T05:26:05.343Z,54.67
2022-12-03T05:27:06.953Z,63.55
2022-12-03T05:28:08.708Z,62.53
2022-12-03T05:29:10.322Z,62.08
2022-12-03T05:30:12.129Z,63.10
2022-12-03T05:31:13.814Z,57.03
2022-12-03T05:32:15.443Z,58.95
2022-12-03T05:33:17.040Z,58.37
2022-12-03T05:34:18.602Z,59.08
2022-12-03T05:35:20.324Z,61.22
2022-12-03T05:36:22.005Z,55.58
2022-12-03T05:37:23.565Z,64.10
2022-12-03T05:38:25.118Z,65.38
2022-12-03T05:39:26.735Z,70.70
2022-12-03T05:40:28.540Z,71.22
2022-12-03T05:41:48.487Z,70.78
2022-12-03T05:42:57.238Z,78.35
2022-12-03T05:43:58.919Z,79.07
2022-12-03T05:45:00.476Z,78.70
2022-12-03T05:46:02.724Z,73.78
2022-12-03T05:47:04.286Z,69.60
2022-12-03T05:48:07.466Z,74.47
2022-12-03T05:49:09.009Z,68.25
2022-12-03T05:50:10.767Z,70.25
2022-12-03T05:51:12.416Z,87.13
2022-12-03T05:52:13.959Z,110.70
2022-12-03T05:53:15.980Z,124.75
2022-12-03T05:54:17.536Z,102.00
2022-12-03T05:55:19.435Z,97.93
2022-12-03T05:56:21.041Z,76.47
2022-12-03T05:57:22.572Z,71.30
2022-12-03T05:58:24.125Z,70.38
2022-12-03T05:59:25.742Z,64.93
2022-12-03T06:00:29.118Z,66.38
2022-12-03T06:01:30.718Z,68.38
2022-12-03T06:02:32.451Z,70.03
2022-12-03T06:03:34.227Z,62.53
2022-12-03T06:04:36.414Z,63.00
2022-12-03T06:05:38.013Z,68.20
2022-12-03T06:06:39.756Z,63.38
2022-12-03T06:07:41.527Z,63.85
2022-12-03T06:08:43.177Z,60.10
2022-12-03T06:09:44.728Z,62.72
2022-12-03T06:10:46.534Z,61.75
2022-12-03T06:11:53.240Z,58.88
2022-12-03T06:12:54.916Z,66.07
2022-12-03T06:13:56.482Z,62.20
2022-12-03T06:14:58.025Z,58.40
2022-12-03T06:15:59.685Z,61.53
2022-12-03T06:17:01.782Z,60.70
2022-12-03T06:18:03.429Z,69.30
2022-12-03T06:19:05.077Z,69.28
2022-12-03T06:20:07.358Z,64.95
2022-12-03T06:21:09.008Z,69.55
2022-12-03T06:22:10.559Z,65.45
2022-12-03T06:23:12.108Z,70.43
2022-12-03T06:24:13.783Z,70.70
2022-12-03T06:25:16.009Z,68.97
2022-12-03T06:26:17.620Z,62.05
2022-12-03T06:27:19.179Z,62.75
2022-12-03T06:28:20.800Z,64.70
2022-12-03T06:29:22.344Z,68.90
2022-12-03T06:30:23.889Z,64.18
2022-12-03T06:31:25.518Z,63.83
2022-12-03T06:32:27.084Z,62.28
2022-12-03T06:33:28.681Z,67.63
2022-12-03T06:34:30.242Z,66.50
2022-12-03T06:35:31.826Z,62.70
2022-12-03T06:36:33.438Z,63.80
2022-12-03T06:37:34.982Z,66.13
2022-12-03T06:38:36.579Z,74.10
2022-12-03T06:39:38.149Z,79.55
2022-12-03T06:40:39.776Z,70.93
2022-12-03T06:41:41.316Z,61.65
2022-12-03T06:42:42.985Z,69.13
2022-12-03T06:43:44.572Z,61.65
2022-12-03T06:44:46.127Z,69.07
2022-12-03T06:45:48.185Z,69.63
2022-12-03T06:46:49.873Z,61.05
2022-12-03T06:47:51.464Z,72.78
2022-12-03T06:48:53.026Z,65.80
2022-12-03T06:49:54.593Z,65.95
2022-12-03T06:50:56.232Z,70.53
2022-12-03T06:51:57.806Z,61.05
2022-12-03T06:52:59.375Z,68.78
2022-12-03T06:54:01.009Z,64.67
2022-12-03T06:55:02.583Z,61.08
2022-12-03T06:56:04.340Z,61.55
2022-12-03T06:57:05.881Z,64.72
2022-12-03T06:58:07.500Z,58.72
2022-12-03T06:59:09.047Z,62.63
2022-12-03T07:00:11.270Z,64.80
2022-12-03T07:01:12.885Z,66.53
2022-12-03T07:02:14.494Z,61.17
2022-12-03T07:03:16.154Z,63.13
2022-12-03T07:04:17.736Z,63.57
2022-12-03T07:05:20.004Z,64.70
2022-12-03T07:06:21.552Z,58.50
2022-12-03T07:07:23.172Z,58.33
2022-12-03T07:08:24.724Z,59.67
2022-12-03T07:09:26.427Z,64.38
2022-12-03T07:10:28.167Z,63.58
2022-12-03T07:11:32.399Z,58.38
2022-12-03T07:12:34.053Z,66.63
2022-12-03T07:13:35.602Z,61.45
2022-12-03T07:14:37.152Z,66.17
2022-12-03T07:15:38.726Z,56.67
2022-12-03T07:16:40.444Z,58.67
2022-12-03T07:17:42.174Z,56.30
2022-12-03T07:18:43.740Z,58.38
2022-12-03T07:19:45.292Z,62.45
2022-12-03T07:20:46.831Z,62.08
2022-12-03T07:21:48.361Z,60.13
2022-12-03T07:22:50.034Z,58.80
2022-12-03T07:23:51.581Z,63.83
2022-12-03T07:24:53.439Z,55.78
2022-12-03T07:25:55.142Z,58.47
2022-12-03T07:26:56.742Z,54.53
2022-12-03T07:27:58.514Z,53.08
2022-12-03T07:29:00.154Z,59.83
2022-12-03T07:30:01.784Z,58.75
2022-12-03T07:31:03.486Z,51.83
2022-12-03T07:32:05.414Z,66.32
2022-12-03T07:33:07.040Z,67.70
2022-12-03T07:34:08.621Z,70.87
2022-12-03T07:35:10.283Z,58.25
2022-12-03T07:36:11.906Z,64.10
2022-12-03T07:37:13.515Z,66.07
2022-12-03T07:38:15.063Z,68.47
2022-12-03T07:39:16.653Z,67.65
2022-12-03T07:40:18.276Z,57.30
2022-12-03T07:41:19.892Z,65.57
2022-12-03T07:42:21.458Z,65.70
2022-12-03T07:43:23.000Z,61.53
2022-12-03T07:44:24.560Z,62.13
2022-12-03T07:45:26.181Z,72.18
2022-12-03T07:46:28.033Z,68.32
2022-12-03T07:47:29.735Z,60.88
2022-12-03T07:48:31.322Z,61.55
2022-12-03T07:49:32.988Z,61.92
2022-12-03T07:50:34.571Z,56.65
2022-12-03T07:51:36.131Z,55.88
2022-12-03T07:52:37.745Z,53.67
2022-12-03T07:53:39.307Z,60.60
2022-12-03T07:54:40.846Z,54.43
2022-12-03T07:55:42.452Z,56.88
2022-12-03T07:56:44.026Z,51.33
2022-12-03T07:57:45.594Z,57.83
2022-12-03T07:58:47.161Z,54.88
2022-12-03T07:59:48.711Z,54.63
2022-12-03T08:00:50.367Z,56.90
2022-12-03T08:01:52.016Z,54.72
2022-12-03T08:02:53.607Z,56.47
2022-12-03T08:03:55.317Z,55.53
2022-12-03T08:04:56.976Z,53.33
2022-12-03T08:05:58.645Z,54.40
2022-12-03T08:07:00.204Z,54.45
2022-12-03T08:08:01.996Z,61.05
2022-12-03T08:09:03.704Z,51.65
2022-12-03T08:10:05.876Z,57.10
2022-12-03T08:11:11.355Z,53.92
2022-12-03T08:12:24.569Z,54.92
2022-12-03T08:13:26.993Z,53.28
2022-12-03T08:14:29.035Z,58.42
2022-12-03T08:15:35.382Z,57.30
2022-12-03T08:16:41.676Z,55.90
2022-12-03T08:17:43.777Z,54.65
2022-12-03T08:18:45.750Z,61.15
2022-12-03T08:19:47.590Z,62.75
2022-12-03T08:20:50.646Z,57.08
2022-12-03T08:21:56.506Z,57.25
2022-12-03T08:23:03.778Z,60.75
2022-12-03T08:24:18.317Z,68.43
2022-12-03T08:25:30.967Z,63.72
2022-12-03T08:26:32.538Z,58.77
2022-12-03T08:27:34.105Z,59.78
2022-12-03T08:28:35.721Z,60.70
2022-12-03T08:29:37.278Z,59.42
2022-12-03T08:30:39.122Z,58.00
2022-12-03T08:31:40.852Z,62.05
2022-12-03T08:32:42.857Z,58.45
2022-12-03T08:33:44.409Z,59.45
2022-12-03T08:34:46.053Z,58.47
2022-12-03T08:35:51.082Z,59.22
2022-12-03T08:36:58.227Z,61.77
2022-12-03T08:38:02.592Z,58.33
2022-12-03T08:39:13.105Z,61.88
2022-12-03T08:40:23.481Z,63.92
2022-12-03T08:41:43.814Z,61.38
2022-12-03T08:42:45.388Z,62.63
2022-12-03T08:43:46.965Z,60.92
2022-12-03T08:44:48.526Z,59.80
2022-12-03T08:45:54.310Z,67.95
2022-12-03T08:47:16.383Z,60.22
2022-12-03T08:48:26.856Z,62.67
2022-12-03T08:49:28.582Z,61.50
2022-12-03T08:50:31.832Z,60.58
2022-12-03T08:51:33.388Z,62.08
2022-12-03T08:52:34.985Z,62.80
2022-12-03T08:53:46.531Z,59.92
2022-12-03T08:54:52.720Z,64.50
2022-12-03T08:55:56.558Z,65.97
2022-12-03T08:56:58.117Z,63.50
2022-12-03T08:57:59.808Z,66.15
2022-12-03T08:59:15.649Z,67.27
2022-12-03T09:00:21.226Z,62.55
2022-12-03T09:01:44.526Z,63.05
2022-12-03T09:02:55.942Z,60.05
2022-12-03T09:04:02.693Z,63.90
2022-12-03T09:05:18.965Z,74.47
2022-12-03T09:06:21.292Z,64.30
2022-12-03T09:07:22.913Z,66.10
2022-12-03T09:08:24.459Z,67.53
2022-12-03T09:09:26.142Z,69.57
2022-12-03T09:10:27.706Z,75.10
2022-12-03T09:11:29.316Z,66.00
2022-12-03T09:12:30.850Z,67.57
2022-12-03T09:13:32.469Z,67.75
2022-12-03T09:14:34.045Z,66.13
2022-12-03T09:15:35.591Z,63.42
2022-12-03T09:16:37.172Z,66.05
2022-12-03T09:17:38.780Z,61.00
2022-12-03T09:18:40.426Z,62.42
2022-12-03T09:19:46.251Z,65.05
2022-12-03T09:20:48.065Z,63.87
2022-12-03T09:21:49.618Z,64.25
2022-12-03T09:22:51.160Z,65.47
2022-12-03T09:23:52.827Z,69.22
2022-12-03T09:24:54.628Z,65.38
2022-12-03T09:25:56.380Z,64.05
2022-12-03T09:26:57.963Z,60.47
2022-12-03T09:27:59.533Z,62.40
2022-12-03T09:29:01.130Z,61.33
2022-12-03T09:30:03.173Z,65.00
2022-12-03T09:31:04.786Z,61.43
2022-12-03T09:32:06.417Z,60.42
2022-12-03T09:33:08.131Z,67.55
2022-12-03T09:34:09.733Z,59.63
2022-12-03T09:35:11.371Z,59.85
2022-12-03T09:36:12.932Z,65.35
2022-12-03T09:37:14.478Z,65.40
2022-12-03T09:38:16.076Z,70.43
2022-12-03T09:39:17.623Z,68.60
2022-12-03T09:40:19.328Z,64.32
2022-12-03T09:41:21.205Z,61.63
2022-12-03T09:42:22.786Z,67.07
2022-12-03T09:43:24.603Z,66.93
2022-12-03T09:44:32.634Z,59.63
2022-12-03T09:45:34.335Z,64.53
2022-12-03T09:46:36.345Z,61.53
2022-12-03T09:47:39.262Z,63.85
2022-12-03T09:48:40.818Z,59.13
2022-12-03T09:49:42.452Z,58.42
2022-12-03T09:50:44.170Z,62.35
2022-12-03T09:51:45.768Z,58.43
2022-12-03T09:52:47.560Z,56.30
2022-12-03T09:53:49.163Z,58.08
2022-12-03T09:54:50.719Z,61.72
2022-12-03T09:55:52.344Z,60.03
2022-12-03T09:56:55.067Z,62.25
2022-12-03T09:57:56.916Z,60.42
2022-12-03T09:58:58.468Z,66.85
2022-12-03T10:00:00.010Z,63.13
2022-12-03T10:01:01.670Z,60.10
2022-12-03T10:02:03.418Z,63.67
2022-12-03T10:03:05.121Z,68.25
2022-12-03T10:04:06.736Z,61.05
2022-12-03T10:05:08.904Z,58.22
2022-12-03T10:06:13.993Z,57.97
2022-12-03T10:07:15.557Z,62.97
2022-12-03T10:08:21.788Z,65.68
2022-12-03T10:09:27.693Z,58.33
2022-12-03T10:10:29.318Z,62.35
2022-12-03T10:11:30.891Z,60.95
2022-12-03T10:12:32.429Z,57.83
2022-12-03T10:13:36.139Z,58.30
2022-12-03T10:14:37.694Z,53.45
2022-12-03T10:15:39.298Z,57.72
2022-12-03T10:16:41.238Z,58.17
2022-12-03T10:17:43.274Z,61.78
2022-12-03T10:18:47.718Z,65.00
2022-12-03T10:19:49.322Z,61.28
2022-12-03T10:20:51.555Z,54.70
2022-12-03T10:21:53.160Z,59.35
2022-12-03T10:22:54.872Z,61.80
2022-12-03T10:24:18.024Z,62.28
2022-12-03T10:25:21.318Z,63.22
2022-12-03T10:26:37.460Z,65.63
2022-12-03T10:27:39.433Z,59.95
2022-12-03T10:28:42.085Z,61.08
2022-12-03T10:29:44.254Z,64.75
2022-12-03T10:30:54.376Z,68.13
2022-12-03T10:31:59.823Z,64.18
2022-12-03T10:33:02.804Z,60.63
2022-12-03T10:34:04.389Z,58.33
2022-12-03T10:35:08.341Z,61.10
2022-12-03T10:36:27.850Z,62.03
2022-12-03T10:37:29.517Z,61.55
2022-12-03T10:38:31.120Z,56.72
2022-12-03T10:39:32.681Z,55.00
2022-12-03T10:40:38.400Z,54.47
2022-12-03T10:41:41.298Z,58.95
2022-12-03T10:42:42.879Z,53.67
2022-12-03T10:43:44.501Z,52.97
2022-12-03T10:44:46.085Z,58.43
2022-12-03T10:46:01.948Z,53.53
2022-12-03T10:47:10.733Z,54.88
2022-12-03T10:48:19.052Z,54.95
2022-12-03T10:49:20.622Z,54.90
2022-12-03T10:50:22.215Z,56.13
2022-12-03T10:51:24.045Z,62.25
2022-12-03T10:52:26.264Z,59.53
2022-12-03T10:53:29.747Z,53.65
2022-12-03T10:54:32.185Z,57.72
2022-12-03T10:55:38.867Z,54.60
2022-12-03T10:56:40.832Z,54.38
2022-12-03T10:57:45.603Z,53.95
2022-12-03T10:58:47.576Z,53.85
2022-12-03T10:59:49.325Z,52.40
2022-12-03T11:00:52.162Z,54.10
2022-12-03T11:01:53.863Z,58.78
2022-12-03T11:02:57.192Z,57.50
2022-12-03T11:04:03.379Z,54.03
2022-12-03T11:05:05.243Z,56.03
2022-12-03T11:06:07.099Z,58.53
2022-12-03T11:07:17.270Z,59.70
2022-12-03T11:08:22.772Z,63.85
2022-12-03T11:09:27.066Z,58.58
2022-12-03T11:10:28.654Z,55.40
2022-12-03T11:11:30.525Z,65.60
2022-12-03T11:12:35.668Z,66.97
2022-12-03T11:13:37.209Z,58.88
2022-12-03T11:15:05.404Z,66.65
2022-12-03T11:16:08.452Z,60.10
2022-12-03T11:17:10.120Z,63.10
2022-12-03T11:18:11.718Z,61.28
2022-12-03T11:19:13.268Z,57.22
2022-12-03T11:20:22.820Z,53.05
2022-12-03T11:21:25.262Z,53.42
2022-12-03T11:22:29.267Z,52.60
2022-12-03T11:23:46.101Z,52.45
2022-12-03T11:24:47.649Z,54.65
2022-12-03T11:25:50.658Z,58.10
2022-12-03T11:26:52.327Z,54.55
2022-12-03T11:28:12.056Z,53.73
2022-12-03T11:29:14.092Z,51.35
2022-12-03T11:30:40.753Z,49.47
2022-12-03T11:31:46.598Z,57.53
2022-12-03T11:33:00.695Z,52.47
2022-12-03T11:34:25.334Z,52.13
2022-12-03T11:35:28.705Z,56.72
2022-12-03T11:36:54.012Z,52.50
2022-12-03T11:37:52.027Z,48.47
2022-12-03T11:38:54.239Z,47.65
2022-12-03T11:39:59.743Z,48.43
2022-12-03T11:41:17.629Z,48.10
2022-12-03T11:42:25.668Z,51.10
2022-12-03T11:43:52.022Z,49.47
2022-12-03T11:45:02.779Z,42.72
2022-12-03T11:46:09.030Z,47.83
2022-12-03T11:47:14.259Z,38.70
2022-12-03T11:48:15.874Z,38.90
2022-12-03T11:49:26.207Z,36.10
2022-12-03T11:50:40.518Z,34.50
2022-12-03T11:51:43.326Z,36.00
2022-12-03T11:52:45.662Z,34.97
2022-12-03T11:53:47.241Z,36.38
2022-12-03T11:54:52.120Z,33.25
2022-12-03T11:56:06.543Z,33.13
2022-12-03T11:57:26.929Z,33.97
2022-12-03T11:58:30.014Z,33.72
2022-12-03T11:59:31.576Z,40.63
2022-12-03T12:00:33.227Z,36.95
2022-12-03T12:01:38.773Z,39.95
2022-12-03T12:02:40.789Z,40.47
2022-12-03T12:03:47.602Z,36.47
2022-12-03T12:04:49.252Z,36.45
2022-12-03T12:06:06.505Z,40.78
2022-12-03T12:07:08.043Z,41.28
2022-12-03T12:08:18.452Z,33.45
2022-12-03T12:09:49.355Z,33.95
2022-12-03T12:10:50.912Z,38.35
2022-12-03T12:11:52.463Z,42.83
2022-12-03T12:12:55.225Z,40.17
2022-12-03T12:14:10.069Z,40.80
2022-12-03T12:15:34.666Z,42.90
2022-12-03T12:16:39.221Z,38.15
2022-12-03T12:17:40.838Z,42.53
2022-12-03T12:18:53.706Z,42.63
2022-12-03T12:20:27.946Z,40.70
2022-12-03T12:21:48.431Z,40.55
2022-12-03T12:22:50.199Z,39.67
2022-12-03T12:23:51.729Z,37.35
2022-12-03T12:24:56.884Z,38.70
2022-12-03T12:26:06.309Z,35.13
2022-12-03T12:27:14.464Z,40.95
2022-12-03T12:28:16.192Z,39.75
2022-12-03T12:29:17.848Z,38.58
2022-12-03T12:30:21.832Z,40.63
2022-12-03T12:31:23.503Z,36.17
2022-12-03T12:32:32.947Z,41.50
2022-12-03T12:33:35.457Z,41.40
2022-12-03T12:34:37.648Z,37.85
2022-12-03T12:35:39.243Z,40.38
2022-12-03T12:36:40.796Z,38.67
2022-12-03T12:37:47.708Z,33.58
2022-12-03T12:38:50.205Z,30.40
2022-12-03T12:39:53.620Z,41.00
2022-12-03T12:40:55.589Z,37.15
2022-12-03T12:41:57.156Z,34.63
2022-12-03T12:43:11.775Z,40.35
2022-12-03T12:44:15.082Z,37.00
2022-12-03T12:45:17.489Z,31.60
2022-12-03T12:46:46.810Z,35.75
2022-12-03T12:47:45.414Z,30.23
2022-12-03T12:48:47.000Z,30.77
2022-12-03T12:49:51.922Z,36.78
2022-12-03T12:51:11.438Z,38.15
2022-12-03T12:52:14.182Z,37.13
2022-12-03T12:53:27.008Z,37.17
2022-12-03T12:54:28.621Z,33.55
2022-12-03T12:55:30.175Z,33.63
2022-12-03T12:56:31.947Z,29.15
2022-12-03T12:57:33.517Z,33.75
2022-12-03T12:58:35.136Z,34.37
2022-12-03T12:59:36.700Z,33.33
2022-12-03T13:00:38.392Z,36.80
2022-12-03T13:01:40.327Z,37.03
2022-12-03T13:02:48.423Z,35.65
2022-12-03T13:03:50.746Z,32.22
2022-12-03T13:04:52.298Z,30.23
2022-12-03T13:05:56.529Z,31.33
2022-12-03T13:06:58.911Z,41.78
2022-12-03T13:08:03.593Z,43.03
2022-12-03T13:09:21.550Z,35.67
2022-12-03T13:10:35.549Z,37.05
2022-12-03T13:11:45.943Z,33.85
2022-12-03T13:12:47.559Z,34.38
2022-12-03T13:13:49.159Z,34.22
2022-12-03T13:14:52.173Z,32.33
2022-12-03T13:16:05.199Z,32.20
2022-12-03T13:17:26.122Z,35.30
2022-12-03T13:18:47.286Z,39.13
2022-12-03T13:19:55.885Z,33.63
2022-12-03T13:21:24.355Z,33.47
2022-12-03T13:22:25.985Z,39.30
2022-12-03T13:23:34.724Z,33.55
2022-12-03T13:24:39.397Z,38.75
2022-12-03T13:27:18.089Z,35.33
2022-12-03T13:28:19.705Z,40.55
2022-12-03T13:29:22.821Z,30.92
2022-12-03T13:30:24.578Z,34.80
2022-12-03T13:31:28.126Z,35.33
2022-12-03T13:32:39.108Z,32.80
2022-12-03T13:33:40.717Z,31.85
2022-12-03T13:34:42.736Z,33.08
2022-12-03T13:35:44.301Z,31.15
2022-12-03T13:36:48.397Z,32.97
2022-12-03T13:37:55.057Z,30.73
2022-12-03T13:38:56.657Z,29.10
2022-12-03T13:39:58.482Z,30.05
2022-12-03T13:41:02.244Z,30.92
2022-12-03T13:42:38.561Z,32.92
2022-12-03T13:43:44.529Z,30.50
2022-12-03T13:44:47.803Z,31.75